sensor_id;sensor_type;location;lat;lon;timestamp;P1;durP1;ratioP1;P2;durP2;ratioP2
39924;SDS011;25592;49.986;11.618;2022-10-13T00:02:31;16.58;;;8.43;;
39924;SDS011;25592;49.986;11.618;2022-10-13T00:05:16;13.13;;;8.10;;
39924;SDS011;25592;49.986;11.618;2022-10-13T00:08:02;16.25;;;9.02;;
39924;SDS011;25592;49.986;11.618;2022-10-13T00:10:48;15.85;;;9.15;;
39924;SDS011;25592;49.986;11.618;2022-10-13T00:13:34;19.92;;;10.15;;
39924;SDS011;25592;49.986;11.618;2022-10-13T00:16:20;17.92;;;9.35;;
39924;SDS011;25592;49.986;11.618;2022-10-13T00:19:05;17.50;;;9.52;;
39924;SDS011;25592;49.986;11.618;2022-10-13T00:21:56;17.17;;;9.43;;
39924;SDS011;25592;49.986;11.618;2022-10-13T00:24:42;21.88;;;9.57;;
39924;SDS011;25592;49.986;11.618;2022-10-13T00:27:27;17.75;;;9.63;;
39924;SDS011;25592;49.986;11.618;2022-10-13T00:30:13;19.30;;;8.98;;
39924;SDS011;25592;49.986;11.618;2022-10-13T00:32:58;17.13;;;9.38;;
39924;SDS011;25592;49.986;11.618;2022-10-13T00:35:44;18.73;;;10.30;;
39924;SDS011;25592;49.986;11.618;2022-10-13T00:38:31;24.13;;;10.23;;
39924;SDS011;25592;49.986;11.618;2022-10-13T00:41:16;20.70;;;9.98;;
39924;SDS011;25592;49.986;11.618;2022-10-13T00:46:48;19.83;;;10.10;;
39924;SDS011;25592;49.986;11.618;2022-10-13T00:49:33;20.83;;;9.63;;
39924;SDS011;25592;49.986;11.618;2022-10-13T00:52:19;13.52;;;8.80;;
39924;SDS011;25592;49.986;11.618;2022-10-13T00:55:05;17.27;;;9.68;;
39924;SDS011;25592;49.986;11.618;2022-10-13T00:57:52;16.52;;;8.73;;
39924;SDS011;25592;49.986;11.618;2022-10-13T01:00:39;14.95;;;8.75;;
39924;SDS011;25592;49.986;11.618;2022-10-13T01:03:26;16.73;;;9.35;;
39924;SDS011;25592;49.986;11.618;2022-10-13T01:06:12;19.40;;;9.50;;
39924;SDS011;25592;49.986;11.618;2022-10-13T01:08:58;16.40;;;8.70;;
39924;SDS011;25592;49.986;11.618;2022-10-13T01:11:47;15.13;;;8.32;;
39924;SDS011;25592;49.986;11.618;2022-10-13T01:14:52;18.95;;;7.85;;
39924;SDS011;25592;49.986;11.618;2022-10-13T01:18:07;17.13;;;9.07;;
39924;SDS011;25592;49.986;11.618;2022-10-13T01:30:11;16.05;;;8.88;;
39924;SDS011;25592;49.986;11.618;2022-10-13T01:36:25;16.23;;;8.73;;
39924;SDS011;25592;49.986;11.618;2022-10-13T01:42:23;14.52;;;8.73;;
39924;SDS011;25592;49.986;11.618;2022-10-13T01:45:17;15.82;;;8.70;;
39924;SDS011;25592;49.986;11.618;2022-10-13T01:48:06;16.58;;;9.32;;
39924;SDS011;25592;49.986;11.618;2022-10-13T01:50:54;17.23;;;9.27;;
39924;SDS011;25592;49.986;11.618;2022-10-13T01:53:41;17.40;;;9.85;;
39924;SDS011;25592;49.986;11.618;2022-10-13T01:56:29;17.38;;;9.57;;
39924;SDS011;25592;49.986;11.618;2022-10-13T01:59:14;16.83;;;8.93;;
39924;SDS011;25592;49.986;11.618;2022-10-13T02:02:19;17.95;;;9.48;;
39924;SDS011;25592;49.986;11.618;2022-10-13T02:08:14;18.48;;;8.85;;
39924;SDS011;25592;49.986;11.618;2022-10-13T02:16:59;21.08;;;9.57;;
39924;SDS011;25592;49.986;11.618;2022-10-13T02:19:47;16.02;;;10.27;;
39924;SDS011;25592;49.986;11.618;2022-10-13T02:22:34;17.10;;;9.15;;
39924;SDS011;25592;49.986;11.618;2022-10-13T02:25:24;15.65;;;9.63;;
39924;SDS011;25592;49.986;11.618;2022-10-13T02:28:11;22.30;;;9.88;;
39924;SDS011;25592;49.986;11.618;2022-10-13T02:30:58;24.92;;;12.18;;
39924;SDS011;25592;49.986;11.618;2022-10-13T02:33:43;16.83;;;9.55;;
39924;SDS011;25592;49.986;11.618;2022-10-13T02:36:29;18.65;;;10.25;;
39924;SDS011;25592;49.986;11.618;2022-10-13T02:39:15;20.17;;;10.30;;
39924;SDS011;25592;49.986;11.618;2022-10-13T02:42:01;19.55;;;10.38;;
39924;SDS011;25592;49.986;11.618;2022-10-13T02:44:46;16.17;;;10.02;;
39924;SDS011;25592;49.986;11.618;2022-10-13T02:47:32;22.83;;;11.15;;
39924;SDS011;25592;49.986;11.618;2022-10-13T02:50:17;16.60;;;9.50;;
39924;SDS011;25592;49.986;11.618;2022-10-13T02:53:03;15.52;;;9.95;;
39924;SDS011;25592;49.986;11.618;2022-10-13T02:55:48;24.13;;;10.40;;
39924;SDS011;25592;49.986;11.618;2022-10-13T02:58:34;18.27;;;9.90;;
39924;SDS011;25592;49.986;11.618;2022-10-13T03:01:19;16.83;;;9.60;;
39924;SDS011;25592;49.986;11.618;2022-10-13T03:04:04;13.20;;;8.80;;
39924;SDS011;25592;49.986;11.618;2022-10-13T03:06:50;18.05;;;9.13;;
39924;SDS011;25592;49.986;11.618;2022-10-13T03:09:35;20.52;;;10.25;;
39924;SDS011;25592;49.986;11.618;2022-10-13T03:12:20;17.45;;;9.60;;
39924;SDS011;25592;49.986;11.618;2022-10-13T03:15:06;18.38;;;9.57;;
39924;SDS011;25592;49.986;11.618;2022-10-13T03:17:52;18.17;;;9.52;;
39924;SDS011;25592;49.986;11.618;2022-10-13T03:20:38;19.90;;;11.25;;
39924;SDS011;25592;49.986;11.618;2022-10-13T03:23:23;19.23;;;11.52;;
39924;SDS011;25592;49.986;11.618;2022-10-13T03:26:09;19.60;;;11.13;;
39924;SDS011;25592;49.986;11.618;2022-10-13T03:28:54;24.33;;;13.02;;
39924;SDS011;25592;49.986;11.618;2022-10-13T03:31:40;22.00;;;11.98;;
39924;SDS011;25592;49.986;11.618;2022-10-13T03:34:25;22.05;;;12.75;;
39924;SDS011;25592;49.986;11.618;2022-10-13T03:37:11;22.00;;;11.73;;
39924;SDS011;25592;49.986;11.618;2022-10-13T03:39:56;20.77;;;11.10;;
39924;SDS011;25592;49.986;11.618;2022-10-13T03:42:42;22.92;;;11.27;;
39924;SDS011;25592;49.986;11.618;2022-10-13T03:45:27;23.05;;;11.73;;
39924;SDS011;25592;49.986;11.618;2022-10-13T03:48:14;21.45;;;12.73;;
39924;SDS011;25592;49.986;11.618;2022-10-13T03:51:03;23.75;;;11.75;;
39924;SDS011;25592;49.986;11.618;2022-10-13T03:53:50;22.80;;;11.18;;
39924;SDS011;25592;49.986;11.618;2022-10-13T03:56:36;18.83;;;11.75;;
39924;SDS011;25592;49.986;11.618;2022-10-13T03:59:21;23.95;;;12.20;;
39924;SDS011;25592;49.986;11.618;2022-10-13T04:02:07;27.63;;;13.70;;
39924;SDS011;25592;49.986;11.618;2022-10-13T04:04:52;25.33;;;13.32;;
39924;SDS011;25592;49.986;11.618;2022-10-13T04:07:37;26.98;;;13.25;;
39924;SDS011;25592;49.986;11.618;2022-10-13T04:10:23;22.27;;;12.60;;
39924;SDS011;25592;49.986;11.618;2022-10-13T04:13:09;24.50;;;13.77;;
39924;SDS011;25592;49.986;11.618;2022-10-13T04:15:54;24.25;;;13.18;;
39924;SDS011;25592;49.986;11.618;2022-10-13T04:18:39;25.25;;;13.27;;
39924;SDS011;25592;49.986;11.618;2022-10-13T04:21:29;23.83;;;13.32;;
39924;SDS011;25592;49.986;11.618;2022-10-13T04:24:17;23.70;;;13.65;;
39924;SDS011;25592;49.986;11.618;2022-10-13T04:27:02;29.95;;;16.10;;
39924;SDS011;25592;49.986;11.618;2022-10-13T04:29:48;32.15;;;16.42;;
39924;SDS011;25592;49.986;11.618;2022-10-13T04:32:33;37.63;;;18.60;;
39924;SDS011;25592;49.986;11.618;2022-10-13T04:35:18;35.22;;;17.67;;
39924;SDS011;25592;49.986;11.618;2022-10-13T04:38:04;30.27;;;16.67;;
39924;SDS011;25592;49.986;11.618;2022-10-13T04:40:49;31.20;;;17.23;;
39924;SDS011;25592;49.986;11.618;2022-10-13T04:43:35;27.63;;;15.80;;
39924;SDS011;25592;49.986;11.618;2022-10-13T04:46:24;28.77;;;15.25;;
39924;SDS011;25592;49.986;11.618;2022-10-13T04:49:10;24.85;;;14.50;;
39924;SDS011;25592;49.986;11.618;2022-10-13T04:51:55;28.92;;;14.98;;
39924;SDS011;25592;49.986;11.618;2022-10-13T04:54:41;28.10;;;14.73;;
39924;SDS011;25592;49.986;11.618;2022-10-13T04:57:27;26.40;;;14.98;;
39924;SDS011;25592;49.986;11.618;2022-10-13T05:00:12;30.75;;;14.75;;
39924;SDS011;25592;49.986;11.618;2022-10-13T05:02:58;36.38;;;19.75;;
39924;SDS011;25592;49.986;11.618;2022-10-13T05:05:43;34.97;;;17.80;;
39924;SDS011;25592;49.986;11.618;2022-10-13T05:08:28;17.05;;;10.15;;
39924;SDS011;25592;49.986;11.618;2022-10-13T05:11:14;22.70;;;12.32;;
39924;SDS011;25592;49.986;11.618;2022-10-13T05:13:59;24.90;;;13.13;;
39924;SDS011;25592;49.986;11.618;2022-10-13T05:16:45;26.10;;;14.07;;
39924;SDS011;25592;49.986;11.618;2022-10-13T05:19:31;28.38;;;16.45;;
39924;SDS011;25592;49.986;11.618;2022-10-13T05:22:16;29.85;;;16.80;;
39924;SDS011;25592;49.986;11.618;2022-10-13T05:25:02;29.00;;;16.20;;
39924;SDS011;25592;49.986;11.618;2022-10-13T05:27:48;34.35;;;16.42;;
39924;SDS011;25592;49.986;11.618;2022-10-13T05:30:33;23.63;;;14.15;;
39924;SDS011;25592;49.986;11.618;2022-10-13T05:33:18;26.75;;;15.43;;
39924;SDS011;25592;49.986;11.618;2022-10-13T05:36:12;29.00;;;15.73;;
39924;SDS011;25592;49.986;11.618;2022-10-13T05:39:18;29.35;;;16.58;;
39924;SDS011;25592;49.986;11.618;2022-10-13T05:42:03;29.73;;;15.85;;
39924;SDS011;25592;49.986;11.618;2022-10-13T05:44:49;31.52;;;15.70;;
39924;SDS011;25592;49.986;11.618;2022-10-13T05:47:35;28.92;;;16.52;;
39924;SDS011;25592;49.986;11.618;2022-10-13T05:50:20;27.23;;;17.25;;
39924;SDS011;25592;49.986;11.618;2022-10-13T05:53:06;37.35;;;17.17;;
39924;SDS011;25592;49.986;11.618;2022-10-13T05:55:51;32.65;;;18.23;;
39924;SDS011;25592;49.986;11.618;2022-10-13T05:58:41;27.08;;;16.17;;
39924;SDS011;25592;49.986;11.618;2022-10-13T06:01:30;24.40;;;14.65;;
39924;SDS011;25592;49.986;11.618;2022-10-13T06:04:21;26.75;;;16.45;;
39924;SDS011;25592;49.986;11.618;2022-10-13T06:07:10;34.15;;;17.20;;
39924;SDS011;25592;49.986;11.618;2022-10-13T06:09:56;29.60;;;17.08;;
39924;SDS011;25592;49.986;11.618;2022-10-13T06:12:42;30.17;;;17.98;;
39924;SDS011;25592;49.986;11.618;2022-10-13T06:15:28;36.25;;;18.40;;
39924;SDS011;25592;49.986;11.618;2022-10-13T06:18:13;33.78;;;17.85;;
39924;SDS011;25592;49.986;11.618;2022-10-13T06:20:59;34.47;;;18.13;;
39924;SDS011;25592;49.986;11.618;2022-10-13T06:23:44;31.90;;;18.42;;
39924;SDS011;25592;49.986;11.618;2022-10-13T06:26:30;32.83;;;18.17;;
39924;SDS011;25592;49.986;11.618;2022-10-13T06:29:15;38.75;;;18.00;;
39924;SDS011;25592;49.986;11.618;2022-10-13T06:32:00;34.03;;;19.35;;
39924;SDS011;25592;49.986;11.618;2022-10-13T06:34:46;36.95;;;17.98;;
39924;SDS011;25592;49.986;11.618;2022-10-13T06:37:31;36.70;;;18.40;;
39924;SDS011;25592;49.986;11.618;2022-10-13T06:40:17;31.95;;;17.20;;
39924;SDS011;25592;49.986;11.618;2022-10-13T06:43:02;38.08;;;19.70;;
39924;SDS011;25592;49.986;11.618;2022-10-13T06:45:48;30.48;;;18.35;;
39924;SDS011;25592;49.986;11.618;2022-10-13T06:48:33;34.42;;;18.40;;
39924;SDS011;25592;49.986;11.618;2022-10-13T06:51:18;36.20;;;18.75;;
39924;SDS011;25592;49.986;11.618;2022-10-13T06:54:04;28.73;;;15.98;;
39924;SDS011;25592;49.986;11.618;2022-10-13T06:56:49;37.80;;;19.52;;
39924;SDS011;25592;49.986;11.618;2022-10-13T06:59:35;33.10;;;18.48;;
39924;SDS011;25592;49.986;11.618;2022-10-13T07:02:20;32.25;;;18.95;;
39924;SDS011;25592;49.986;11.618;2022-10-13T07:05:06;33.67;;;17.98;;
39924;SDS011;25592;49.986;11.618;2022-10-13T07:07:52;29.85;;;17.42;;
39924;SDS011;25592;49.986;11.618;2022-10-13T07:10:38;30.52;;;19.35;;
39924;SDS011;25592;49.986;11.618;2022-10-13T07:13:24;29.73;;;18.05;;
39924;SDS011;25592;49.986;11.618;2022-10-13T07:16:10;39.28;;;20.90;;
39924;SDS011;25592;49.986;11.618;2022-10-13T07:18:55;40.00;;;20.33;;
39924;SDS011;25592;49.986;11.618;2022-10-13T07:21:40;37.08;;;20.02;;
39924;SDS011;25592;49.986;11.618;2022-10-13T07:24:26;37.10;;;18.95;;
39924;SDS011;25592;49.986;11.618;2022-10-13T07:27:11;46.45;;;21.40;;
39924;SDS011;25592;49.986;11.618;2022-10-13T07:29:57;35.30;;;19.00;;
39924;SDS011;25592;49.986;11.618;2022-10-13T07:32:42;42.67;;;21.23;;
39924;SDS011;25592;49.986;11.618;2022-10-13T07:35:28;37.72;;;20.13;;
39924;SDS011;25592;49.986;11.618;2022-10-13T07:38:15;41.22;;;21.65;;
39924;SDS011;25592;49.986;11.618;2022-10-13T07:41:01;35.50;;;20.10;;
39924;SDS011;25592;49.986;11.618;2022-10-13T07:43:47;34.97;;;19.15;;
39924;SDS011;25592;49.986;11.618;2022-10-13T07:46:33;35.20;;;18.92;;
39924;SDS011;25592;49.986;11.618;2022-10-13T07:49:18;40.30;;;21.75;;
39924;SDS011;25592;49.986;11.618;2022-10-13T07:52:03;35.55;;;21.02;;
39924;SDS011;25592;49.986;11.618;2022-10-13T07:54:49;40.33;;;19.58;;
39924;SDS011;25592;49.986;11.618;2022-10-13T07:57:35;35.53;;;18.73;;
39924;SDS011;25592;49.986;11.618;2022-10-13T08:00:20;34.88;;;18.55;;
39924;SDS011;25592;49.986;11.618;2022-10-13T08:03:06;31.98;;;18.08;;
39924;SDS011;25592;49.986;11.618;2022-10-13T08:05:51;36.28;;;19.42;;
39924;SDS011;25592;49.986;11.618;2022-10-13T08:08:37;43.15;;;19.42;;
39924;SDS011;25592;49.986;11.618;2022-10-13T08:11:24;37.08;;;19.13;;
39924;SDS011;25592;49.986;11.618;2022-10-13T08:14:11;37.55;;;19.83;;
39924;SDS011;25592;49.986;11.618;2022-10-13T08:16:56;35.17;;;18.38;;
39924;SDS011;25592;49.986;11.618;2022-10-13T08:19:42;33.03;;;19.17;;
39924;SDS011;25592;49.986;11.618;2022-10-13T08:22:27;34.95;;;18.52;;
39924;SDS011;25592;49.986;11.618;2022-10-13T08:25:13;39.33;;;18.90;;
39924;SDS011;25592;49.986;11.618;2022-10-13T08:27:58;33.83;;;18.10;;
39924;SDS011;25592;49.986;11.618;2022-10-13T08:30:44;37.63;;;18.92;;
39924;SDS011;25592;49.986;11.618;2022-10-13T08:33:30;33.50;;;19.38;;
39924;SDS011;25592;49.986;11.618;2022-10-13T08:36:16;41.45;;;21.50;;
39924;SDS011;25592;49.986;11.618;2022-10-13T08:39:01;37.10;;;20.27;;
39924;SDS011;25592;49.986;11.618;2022-10-13T08:41:47;40.83;;;20.85;;
39924;SDS011;25592;49.986;11.618;2022-10-13T08:44:35;38.40;;;23.88;;
39924;SDS011;25592;49.986;11.618;2022-10-13T08:47:46;46.30;;;21.60;;
39924;SDS011;25592;49.986;11.618;2022-10-13T08:50:38;39.90;;;21.52;;
39924;SDS011;25592;49.986;11.618;2022-10-13T08:53:33;40.78;;;23.17;;
39924;SDS011;25592;49.986;11.618;2022-10-13T08:56:26;40.75;;;20.73;;
39924;SDS011;25592;49.986;11.618;2022-10-13T08:59:14;34.50;;;20.77;;
39924;SDS011;25592;49.986;11.618;2022-10-13T09:02:04;43.95;;;20.70;;
39924;SDS011;25592;49.986;11.618;2022-10-13T09:05:13;38.85;;;21.83;;
39924;SDS011;25592;49.986;11.618;2022-10-13T09:08:19;45.05;;;23.02;;
39924;SDS011;25592;49.986;11.618;2022-10-13T09:11:07;35.58;;;19.63;;
39924;SDS011;25592;49.986;11.618;2022-10-13T09:13:57;38.15;;;20.73;;
39924;SDS011;25592;49.986;11.618;2022-10-13T09:16:44;40.13;;;22.00;;
39924;SDS011;25592;49.986;11.618;2022-10-13T09:19:31;36.45;;;20.73;;
39924;SDS011;25592;49.986;11.618;2022-10-13T09:22:24;49.65;;;23.05;;
39924;SDS011;25592;49.986;11.618;2022-10-13T09:28:02;44.38;;;24.70;;
39924;SDS011;25592;49.986;11.618;2022-10-13T09:31:02;41.90;;;22.45;;
39924;SDS011;25592;49.986;11.618;2022-10-13T09:34:13;40.72;;;20.50;;
39924;SDS011;25592;49.986;11.618;2022-10-13T09:37:04;48.15;;;21.52;;
39924;SDS011;25592;49.986;11.618;2022-10-13T09:40:00;43.92;;;24.20;;
39924;SDS011;25592;49.986;11.618;2022-10-13T09:42:56;47.63;;;23.75;;
39924;SDS011;25592;49.986;11.618;2022-10-13T09:45:44;42.25;;;22.17;;
39924;SDS011;25592;49.986;11.618;2022-10-13T09:48:31;41.13;;;21.50;;
39924;SDS011;25592;49.986;11.618;2022-10-13T09:51:57;48.10;;;21.88;;
39924;SDS011;25592;49.986;11.618;2022-10-13T09:54:44;50.42;;;23.08;;
39924;SDS011;25592;49.986;11.618;2022-10-13T10:00:31;40.35;;;21.80;;
39924;SDS011;25592;49.986;11.618;2022-10-13T10:06:14;36.92;;;19.38;;
39924;SDS011;25592;49.986;11.618;2022-10-13T10:09:05;49.22;;;23.77;;
39924;SDS011;25592;49.986;11.618;2022-10-13T10:12:08;48.30;;;21.45;;
39924;SDS011;25592;49.986;11.618;2022-10-13T10:14:59;48.55;;;20.48;;
39924;SDS011;25592;49.986;11.618;2022-10-13T10:17:51;40.67;;;19.52;;
39924;SDS011;25592;49.986;11.618;2022-10-13T10:23:47;46.63;;;20.58;;
39924;SDS011;25592;49.986;11.618;2022-10-13T10:26:42;43.38;;;21.05;;
39924;SDS011;25592;49.986;11.618;2022-10-13T10:29:52;40.33;;;19.42;;
39924;SDS011;25592;49.986;11.618;2022-10-13T10:35:51;39.88;;;18.98;;
39924;SDS011;25592;49.986;11.618;2022-10-13T10:38:55;41.03;;;18.73;;
39924;SDS011;25592;49.986;11.618;2022-10-13T10:41:52;30.40;;;17.38;;
39924;SDS011;25592;49.986;11.618;2022-10-13T10:44:47;34.22;;;17.35;;
39924;SDS011;25592;49.986;11.618;2022-10-13T10:47:35;35.75;;;17.70;;
39924;SDS011;25592;49.986;11.618;2022-10-13T10:50:25;36.17;;;16.38;;
39924;SDS011;25592;49.986;11.618;2022-10-13T10:53:15;31.33;;;16.77;;
39924;SDS011;25592;49.986;11.618;2022-10-13T10:56:07;36.53;;;16.92;;
39924;SDS011;25592;49.986;11.618;2022-10-13T10:59:30;32.72;;;16.48;;
39924;SDS011;25592;49.986;11.618;2022-10-13T11:05:59;32.88;;;13.93;;
39924;SDS011;25592;49.986;11.618;2022-10-13T11:08:47;28.13;;;15.48;;
39924;SDS011;25592;49.986;11.618;2022-10-13T11:11:34;31.08;;;15.35;;
39924;SDS011;25592;49.986;11.618;2022-10-13T11:14:23;31.98;;;15.50;;
39924;SDS011;25592;49.986;11.618;2022-10-13T11:17:19;26.60;;;13.80;;
39924;SDS011;25592;49.986;11.618;2022-10-13T11:25:49;27.15;;;13.88;;
39924;SDS011;25592;49.986;11.618;2022-10-13T11:31:46;32.67;;;14.13;;
39924;SDS011;25592;49.986;11.618;2022-10-13T11:34:34;24.38;;;13.30;;
39924;SDS011;25592;49.986;11.618;2022-10-13T11:37:19;26.13;;;15.30;;
39924;SDS011;25592;49.986;11.618;2022-10-13T11:40:31;21.90;;;12.85;;
39924;SDS011;25592;49.986;11.618;2022-10-13T11:43:26;20.08;;;10.93;;
39924;SDS011;25592;49.986;11.618;2022-10-13T11:46:45;26.42;;;12.55;;
39924;SDS011;25592;49.986;11.618;2022-10-13T11:49:56;21.02;;;12.35;;
39924;SDS011;25592;49.986;11.618;2022-10-13T11:53:16;23.30;;;12.68;;
39924;SDS011;25592;49.986;11.618;2022-10-13T11:56:02;21.00;;;11.02;;
39924;SDS011;25592;49.986;11.618;2022-10-13T11:58:48;26.40;;;10.80;;
39924;SDS011;25592;49.986;11.618;2022-10-13T12:01:33;21.02;;;11.68;;
39924;SDS011;25592;49.986;11.618;2022-10-13T12:04:20;22.60;;;11.88;;
39924;SDS011;25592;49.986;11.618;2022-10-13T12:07:10;17.08;;;11.13;;
39924;SDS011;25592;49.986;11.618;2022-10-13T12:09:58;24.70;;;11.43;;
39924;SDS011;25592;49.986;11.618;2022-10-13T12:12:44;22.75;;;11.20;;
39924;SDS011;25592;49.986;11.618;2022-10-13T12:15:34;28.00;;;11.23;;
39924;SDS011;25592;49.986;11.618;2022-10-13T12:18:30;26.33;;;11.75;;
39924;SDS011;25592;49.986;11.618;2022-10-13T12:21:20;17.90;;;10.68;;
39924;SDS011;25592;49.986;11.618;2022-10-13T12:24:07;19.60;;;10.55;;
39924;SDS011;25592;49.986;11.618;2022-10-13T12:26:54;20.13;;;9.90;;
39924;SDS011;25592;49.986;11.618;2022-10-13T12:29:40;22.67;;;10.23;;
39924;SDS011;25592;49.986;11.618;2022-10-13T12:32:26;25.83;;;10.98;;
39924;SDS011;25592;49.986;11.618;2022-10-13T12:35:22;15.75;;;9.13;;
39924;SDS011;25592;49.986;11.618;2022-10-13T12:38:14;17.77;;;9.75;;
39924;SDS011;25592;49.986;11.618;2022-10-13T12:41:03;19.58;;;10.00;;
39924;SDS011;25592;49.986;11.618;2022-10-13T12:43:49;15.05;;;9.80;;
39924;SDS011;25592;49.986;11.618;2022-10-13T12:46:43;16.80;;;9.73;;
39924;SDS011;25592;49.986;11.618;2022-10-13T12:49:34;25.45;;;10.82;;
39924;SDS011;25592;49.986;11.618;2022-10-13T12:52:23;17.45;;;8.98;;
39924;SDS011;25592;49.986;11.618;2022-10-13T12:55:13;20.80;;;9.32;;
39924;SDS011;25592;49.986;11.618;2022-10-13T12:58:02;19.20;;;9.15;;
39924;SDS011;25592;49.986;11.618;2022-10-13T13:00:54;19.17;;;8.75;;
39924;SDS011;25592;49.986;11.618;2022-10-13T13:03:57;15.88;;;8.40;;
39924;SDS011;25592;49.986;11.618;2022-10-13T13:06:52;19.92;;;8.98;;
39924;SDS011;25592;49.986;11.618;2022-10-13T13:12:52;14.23;;;7.57;;
39924;SDS011;25592;49.986;11.618;2022-10-13T13:15:39;16.45;;;8.93;;
39924;SDS011;25592;49.986;11.618;2022-10-13T13:21:11;17.98;;;8.88;;
39924;SDS011;25592;49.986;11.618;2022-10-13T13:23:58;15.57;;;7.45;;
39924;SDS011;25592;49.986;11.618;2022-10-13T13:26:48;19.40;;;8.65;;
39924;SDS011;25592;49.986;11.618;2022-10-13T13:29:33;15.10;;;8.48;;
39924;SDS011;25592;49.986;11.618;2022-10-13T13:32:19;22.42;;;8.05;;
39924;SDS011;25592;49.986;11.618;2022-10-13T13:35:06;19.85;;;8.70;;
39924;SDS011;25592;49.986;11.618;2022-10-13T13:37:52;16.60;;;8.50;;
39924;SDS011;25592;49.986;11.618;2022-10-13T13:40:37;17.27;;;7.88;;
39924;SDS011;25592;49.986;11.618;2022-10-13T13:43:23;15.13;;;7.97;;
39924;SDS011;25592;49.986;11.618;2022-10-13T13:46:13;16.45;;;8.18;;
39924;SDS011;25592;49.986;11.618;2022-10-13T13:49:00;16.65;;;8.20;;
39924;SDS011;25592;49.986;11.618;2022-10-13T13:51:49;17.70;;;7.63;;
39924;SDS011;25592;49.986;11.618;2022-10-13T13:54:35;13.25;;;7.40;;
39924;SDS011;25592;49.986;11.618;2022-10-13T13:57:20;11.13;;;7.05;;
39924;SDS011;25592;49.986;11.618;2022-10-13T14:00:06;18.17;;;8.60;;
39924;SDS011;25592;49.986;11.618;2022-10-13T14:02:52;15.07;;;8.52;;
39924;SDS011;25592;49.986;11.618;2022-10-13T14:05:38;18.23;;;7.85;;
39924;SDS011;25592;49.986;11.618;2022-10-13T14:08:24;17.00;;;8.18;;
39924;SDS011;25592;49.986;11.618;2022-10-13T14:11:10;19.17;;;9.07;;
39924;SDS011;25592;49.986;11.618;2022-10-13T14:13:56;15.70;;;8.63;;
39924;SDS011;25592;49.986;11.618;2022-10-13T14:16:45;23.42;;;9.30;;
39924;SDS011;25592;49.986;11.618;2022-10-13T14:19:31;14.82;;;8.68;;
39924;SDS011;25592;49.986;11.618;2022-10-13T14:22:16;13.00;;;7.65;;
39924;SDS011;25592;49.986;11.618;2022-10-13T14:25:02;16.05;;;8.68;;
39924;SDS011;25592;49.986;11.618;2022-10-13T14:27:48;16.40;;;8.23;;
39924;SDS011;25592;49.986;11.618;2022-10-13T14:30:34;14.63;;;9.52;;
39924;SDS011;25592;49.986;11.618;2022-10-13T14:33:22;15.65;;;8.90;;
39924;SDS011;25592;49.986;11.618;2022-10-13T14:36:07;17.17;;;7.72;;
39924;SDS011;25592;49.986;11.618;2022-10-13T14:38:53;16.35;;;8.80;;
39924;SDS011;25592;49.986;11.618;2022-10-13T14:41:39;17.25;;;8.57;;
39924;SDS011;25592;49.986;11.618;2022-10-13T14:44:24;18.00;;;8.75;;
39924;SDS011;25592;49.986;11.618;2022-10-13T14:47:09;15.15;;;8.88;;
39924;SDS011;25592;49.986;11.618;2022-10-13T14:49:55;17.63;;;8.75;;
39924;SDS011;25592;49.986;11.618;2022-10-13T14:52:40;16.23;;;8.38;;
39924;SDS011;25592;49.986;11.618;2022-10-13T14:55:26;15.60;;;8.32;;
39924;SDS011;25592;49.986;11.618;2022-10-13T14:58:11;20.17;;;9.88;;
39924;SDS011;25592;49.986;11.618;2022-10-13T15:00:56;15.77;;;8.23;;
39924;SDS011;25592;49.986;11.618;2022-10-13T15:03:43;15.15;;;8.52;;
39924;SDS011;25592;49.986;11.618;2022-10-13T15:06:30;16.95;;;8.90;;
39924;SDS011;25592;49.986;11.618;2022-10-13T15:09:16;17.70;;;9.10;;
39924;SDS011;25592;49.986;11.618;2022-10-13T15:12:01;14.63;;;7.50;;
39924;SDS011;25592;49.986;11.618;2022-10-13T15:14:47;22.75;;;8.38;;
39924;SDS011;25592;49.986;11.618;2022-10-13T15:17:32;12.77;;;7.35;;
39924;SDS011;25592;49.986;11.618;2022-10-13T15:20:18;17.35;;;7.57;;
39924;SDS011;25592;49.986;11.618;2022-10-13T15:23:03;12.32;;;7.68;;
39924;SDS011;25592;49.986;11.618;2022-10-13T15:25:59;10.70;;;6.85;;
39924;SDS011;25592;49.986;11.618;2022-10-13T15:28:46;21.25;;;8.52;;
39924;SDS011;25592;49.986;11.618;2022-10-13T15:31:33;12.75;;;7.63;;
39924;SDS011;25592;49.986;11.618;2022-10-13T15:34:19;21.35;;;8.57;;
39924;SDS011;25592;49.986;11.618;2022-10-13T15:37:05;18.92;;;7.45;;
39924;SDS011;25592;49.986;11.618;2022-10-13T15:39:51;13.65;;;7.47;;
39924;SDS011;25592;49.986;11.618;2022-10-13T15:42:41;18.25;;;8.57;;
39924;SDS011;25592;49.986;11.618;2022-10-13T15:45:26;18.80;;;8.20;;
39924;SDS011;25592;49.986;11.618;2022-10-13T15:48:12;14.88;;;7.68;;
39924;SDS011;25592;49.986;11.618;2022-10-13T15:50:57;16.92;;;7.88;;
39924;SDS011;25592;49.986;11.618;2022-10-13T15:53:43;17.13;;;8.00;;
39924;SDS011;25592;49.986;11.618;2022-10-13T15:56:30;13.77;;;7.20;;
39924;SDS011;25592;49.986;11.618;2022-10-13T15:59:15;11.73;;;6.60;;
39924;SDS011;25592;49.986;11.618;2022-10-13T16:02:01;16.27;;;7.75;;
39924;SDS011;25592;49.986;11.618;2022-10-13T16:04:46;17.75;;;8.85;;
39924;SDS011;25592;49.986;11.618;2022-10-13T16:07:32;16.05;;;7.25;;
39924;SDS011;25592;49.986;11.618;2022-10-13T16:10:17;20.52;;;7.97;;
39924;SDS011;25592;49.986;11.618;2022-10-13T16:13:03;17.73;;;9.55;;
39924;SDS011;25592;49.986;11.618;2022-10-13T16:15:55;16.30;;;8.30;;
39924;SDS011;25592;49.986;11.618;2022-10-13T16:18:44;20.58;;;8.38;;
39924;SDS011;25592;49.986;11.618;2022-10-13T16:21:29;18.20;;;9.15;;
39924;SDS011;25592;49.986;11.618;2022-10-13T16:24:15;15.57;;;8.25;;
39924;SDS011;25592;49.986;11.618;2022-10-13T16:27:00;15.23;;;7.38;;
39924;SDS011;25592;49.986;11.618;2022-10-13T16:29:46;15.50;;;7.80;;
39924;SDS011;25592;49.986;11.618;2022-10-13T16:32:36;15.85;;;7.60;;
39924;SDS011;25592;49.986;11.618;2022-10-13T16:35:22;12.90;;;7.13;;
39924;SDS011;25592;49.986;11.618;2022-10-13T16:38:08;12.35;;;6.45;;
39924;SDS011;25592;49.986;11.618;2022-10-13T16:40:54;16.00;;;7.72;;
39924;SDS011;25592;49.986;11.618;2022-10-13T16:43:40;14.57;;;7.10;;
39924;SDS011;25592;49.986;11.618;2022-10-13T16:46:27;15.75;;;9.05;;
39924;SDS011;25592;49.986;11.618;2022-10-13T16:49:12;13.18;;;7.43;;
39924;SDS011;25592;49.986;11.618;2022-10-13T16:51:58;18.15;;;8.32;;
39924;SDS011;25592;49.986;11.618;2022-10-13T16:54:44;15.40;;;8.65;;
39924;SDS011;25592;49.986;11.618;2022-10-13T16:57:30;21.25;;;8.70;;
39924;SDS011;25592;49.986;11.618;2022-10-13T17:00:16;15.95;;;8.60;;
39924;SDS011;25592;49.986;11.618;2022-10-13T17:03:01;21.60;;;9.68;;
39924;SDS011;25592;49.986;11.618;2022-10-13T17:05:50;19.95;;;10.70;;
39924;SDS011;25592;49.986;11.618;2022-10-13T17:08:36;16.67;;;8.90;;
39924;SDS011;25592;49.986;11.618;2022-10-13T17:11:23;16.67;;;9.77;;
39924;SDS011;25592;49.986;11.618;2022-10-13T17:14:10;18.83;;;8.40;;
39924;SDS011;25592;49.986;11.618;2022-10-13T17:16:55;18.20;;;9.68;;